Time;durP1;ratioP1;P1;durP2;ratioP2;P2;SDS_P1;SDS_P2;PMS_P1;PMS_P2;Temp;Humidity;BMP_temperature;BMP_pressure;BME280_temperature;BME280_humidity;BME280_pressure;Samples;Min_cycle;Max_cycle;Signal;HPM_P1;HPM_P2
2023/02/07 00:00:31;;;;;;;;;25.33;18.67;;;;;5.66;58.12;103442.34;2006310;28;3583011;-77
2023/02/07 00:01:42;;;;;;;;;26.00;15.00;;;;;5.65;57.99;103435.38;2006415;28;2832561;-77
2023/02/07 00:02:55;;;;;;;;;22.20;18.20;;;;;5.63;58.19;103430.09;1994541;28;1835729;-78
2023/02/07 00:04:07;;;;;;;;;19.33;15.33;;;;;5.62;58.05;103432.66;1991895;28;3564887;-77
2023/02/07 00:05:20;;;;;;;;;25.17;17.50;;;;;5.60;58.23;103435.25;2040243;28;2841896;-77
2023/02/07 00:06:34;;;;;;;;;19.33;16.33;;;;;5.59;58.31;103440.38;1999601;28;3558609;-77
2023/02/07 00:07:44;;;;;;;;;24.50;16.50;;;;;5.56;57.93;103435.97;1991148;28;2830538;-77
2023/02/07 00:08:58;;;;;;;;;23.00;16.00;;;;;5.55;57.73;103435.91;1991063;28;2838105;-78
2023/02/07 00:10:09;;;;;;;;;21.00;18.50;;;;;5.52;58.25;103428.88;1979984;28;2827357;-78
2023/02/07 00:11:22;;;;;;;;;21.33;17.33;;;;;5.52;58.35;103434.09;1997274;28;2828438;-78
2023/02/07 00:12:35;;;;;;;;;19.20;17.20;;;;;5.49;58.03;103434.88;2018543;28;2831588;-77
2023/02/07 00:13:50;;;;;;;;;20.67;18.67;;;;;5.46;58.36;103423.44;1991738;28;3562793;-78
2023/02/07 00:15:04;;;;;;;;;23.83;19.50;;;;;5.46;58.39;103433.88;2025913;28;1842014;-77
2023/02/07 00:16:15;;;;;;;;;21.00;18.00;;;;;5.48;58.41;103424.41;1976662;28;2825293;-77
2023/02/07 00:17:28;;;;;;;;;18.50;16.00;;;;;5.48;58.48;103430.50;1976780;28;2820046;-77
2023/02/07 00:18:42;;;;;;;;;20.00;17.29;;;;;5.49;58.52;103429.66;2005609;28;1832546;-77
2023/02/07 00:19:55;;;;;;;;;23.17;17.50;;;;;5.47;58.17;103430.44;2028561;28;1839946;-77
2023/02/07 00:21:12;;;;;;;;;21.00;15.50;;;;;5.44;58.24;103420.81;1977162;28;2818023;-77
2023/02/07 00:22:26;;;;;;;;;20.33;18.00;;;;;5.45;58.16;103425.19;1999191;28;1835738;-77
2023/02/07 00:23:37;;;;;;;;;17.00;15.00;;;;;5.44;58.70;103425.13;1978209;28;2825259;-77
2023/02/07 00:24:51;;;;;;;;;16.83;15.17;;;;;5.43;58.40;103428.59;2006120;28;1842491;-77
2023/02/07 00:26:02;;;;;;;;;13.00;11.50;;;;;5.42;58.64;103422.47;1976800;28;2799250;-77
2023/02/07 00:27:16;;;;;;;;;23.33;16.83;;;;;5.42;58.60;103416.38;2026734;28;1845105;-77
2023/02/07 00:28:27;;;;;;;;;19.00;14.50;;;;;5.42;58.48;103408.53;1977843;28;2810680;-78
2023/02/07 00:29:40;;;;;;;;;18.17;14.00;;;;;5.42;58.82;103412.03;2008518;28;2817466;-77
2023/02/07 00:31:01;;;;;;;;;20.50;18.50;;;;;5.43;58.29;103410.34;1971782;28;2828348;-77
2023/02/07 00:32:14;;;;;;;;;20.00;17.80;;;;;5.43;58.38;103408.63;1989152;28;2826670;-77
2023/02/07 00:33:25;;;;;;;;;26.00;19.00;;;;;5.43;58.35;103410.34;1987347;28;2838818;-77
2023/02/07 00:34:37;;;;;;;;;21.00;17.50;;;;;5.40;58.20;103406.78;1991261;28;2822117;-77
2023/02/07 00:35:55;;;;;;;;;13.00;13.00;;;;;5.42;58.29;103408.53;1975058;28;2805591;-78
2023/02/07 00:37:06;;;;;;;;;20.50;16.00;;;;;5.42;58.27;103403.34;1974353;28;2822220;-77
2023/02/07 00:38:17;;;;;;;;;21.33;17.33;;;;;5.40;58.67;103411.13;1993073;28;2829398;-78
2023/02/07 00:39:28;;;;;;;;;13.00;11.50;;;;;5.38;58.39;103407.56;1998751;28;2789847;-78
2023/02/07 00:40:40;;;;;;;;;18.33;15.67;;;;;5.36;58.65;103404.03;1990484;28;2815956;-77
2023/02/07 00:41:51;;;;;;;;;16.50;15.50;;;;;5.34;58.30;103403.97;1998643;28;2816944;-77
2023/02/07 00:43:01;;;;;;;;;21.00;17.00;;;;;5.35;58.28;103408.38;1975032;28;2825226;-77
2023/02/07 00:44:14;;;;;;;;;22.33;18.67;;;;;5.34;58.21;103409.19;2010177;28;2833734;-77
2023/02/07 00:45:25;;;;;;;;;25.50;14.00;;;;;5.33;58.28;103414.38;1983041;28;2829521;-78
2023/02/07 00:46:37;;;;;;;;;20.00;16.00;;;;;5.33;58.50;103406.53;2001065;28;1842029;-77
2023/02/07 00:47:47;;;;;;;;;20.00;15.00;;;;;5.32;58.29;103409.97;1969504;28;2813769;-77
2023/02/07 00:48:59;;;;;;;;;19.00;13.50;;;;;5.32;58.83;103404.75;1986883;28;2817421;-78
2023/02/07 00:50:10;;;;;;;;;20.00;15.50;;;;;5.30;58.40;103404.72;1986037;28;2816897;-77
2023/02/07 00:51:24;;;;;;;;;17.00;12.40;;;;;5.30;58.15;103420.38;2006412;28;1829455;-77
2023/02/07 00:52:35;;;;;;;;;22.50;17.00;;;;;5.29;58.33;103411.66;1997768;28;2841315;-77
2023/02/07 00:53:47;;;;;;;;;16.00;12.25;;;;;5.29;58.40;103415.97;2006884;28;1844035;-77
2023/02/07 00:54:57;;;;;;;;;18.00;16.50;;;;;5.27;58.65;103409.81;1997747;28;2817943;-78
2023/02/07 00:56:09;;;;;;;;;18.00;18.00;;;;;5.28;58.55;103411.59;1994060;28;2826646;-77
2023/02/07 00:57:23;;;;;;;;;18.50;14.83;;;;;5.28;58.59;103415.06;2005991;28;1831551;-77
2023/02/07 00:58:36;;;;;;;;;20.83;18.00;;;;;5.29;58.44;103414.25;2005486;28;1842004;-77
2023/02/07 00:59:48;;;;;;;;;19.33;14.00;;;;;5.29;58.31;103406.44;1977440;28;3558578;-77
2023/02/07 01:01:00;;;;;;;;;19.00;15.00;;;;;5.30;58.71;103407.31;2012606;28;2829564;-78
2023/02/07 01:02:11;;;;;;;;;25.00;19.00;;;;;5.32;58.50;103410.88;2000777;28;2839856;-77
2023/02/07 01:03:22;;;;;;;;;23.50;14.50;;;;;5.30;58.15;103409.94;1994468;28;2840855;-77
2023/02/07 01:04:33;;;;;;;;;20.50;15.00;;;;;5.28;58.39;103404.66;1973132;28;2811721;-77
2023/02/07 01:05:45;;;;;;;;;17.20;14.00;;;;;5.30;58.13;103407.31;1994609;28;1832126;-77
2023/02/07 01:06:56;;;;;;;;;16.50;15.50;;;;;5.29;58.30;103415.97;1995315;28;2806520;-77
2023/02/07 01:08:07;;;;;;;;;20.50;18.00;;;;;5.30;58.64;103412.53;1993258;28;2825306;-77
2023/02/07 01:09:18;;;;;;;;;17.00;14.00;;;;;5.30;58.37;103409.94;1978641;28;2822490;-77
2023/02/07 01:10:30;;;;;;;;;21.67;18.00;;;;;5.32;58.26;103407.38;1993153;28;2835774;-77
2023/02/07 01:11:41;;;;;;;;;18.00;14.00;;;;;5.31;58.30;103408.22;1992281;28;2801324;-78
2023/02/07 01:12:52;;;;;;;;;18.00;15.75;;;;;5.31;58.47;103403.00;2027894;28;1833707;-77
2023/02/07 01:14:05;;;;;;;;;19.33;16.50;;;;;5.30;58.13;103407.31;2005436;28;1842035;-77
2023/02/07 01:15:19;;;;;;;;;12.67;10.67;;;;;5.29;58.34;103409.03;2007727;28;1829495;-78
2023/02/07 01:16:33;;;;;;;;;23.80;17.40;;;;;5.29;58.21;103402.94;1995628;28;2831489;-77
2023/02/07 01:17:45;;;;;;;;;19.67;16.67;;;;;5.27;58.21;103409.81;1975019;28;2825286;-77
2023/02/07 01:19:02;;;;;;;;;13.67;12.33;;;;;5.24;58.54;103404.50;2027538;28;1827401;-77
2023/02/07 01:20:13;;;;;;;;;17.00;13.50;;;;;5.22;57.95;103401.84;1970447;28;2809642;-77
2023/02/07 01:21:26;;;;;;;;;18.50;14.00;;;;;5.22;58.38;103400.97;1969808;28;2820046;-77
2023/02/07 01:22:39;;;;;;;;;17.83;13.67;;;;;5.22;58.34;103408.78;2006110;28;1837790;-77
2023/02/07 01:23:55;;;;;;;;;21.33;14.33;;;;;5.20;58.44;103400.91;2005566;28;1837824;-77
2023/02/07 01:25:09;;;;;;;;;20.17;16.33;;;;;5.17;58.36;103401.72;2000074;28;1839924;-77
2023/02/07 01:26:22;;;;;;;;;23.67;16.67;;;;;5.16;58.32;103393.84;1977000;28;3587747;-77
2023/02/07 01:27:34;;;;;;;;;17.00;14.50;;;;;5.13;58.52;103394.63;1997781;28;2816921;-77
2023/02/07 01:28:48;;;;;;;;;14.83;14.83;;;;;5.12;58.49;103395.44;2005821;28;1837816;-77
2023/02/07 01:29:59;;;;;;;;;14.50;12.50;;;;;5.09;58.43;103392.72;1977538;28;2787795;-77
2023/02/07 01:31:12;;;;;;;;;18.00;13.67;;;;;5.07;58.55;103390.09;1983247;28;2827625;-77
2023/02/07 01:32:22;;;;;;;;;16.00;13.00;;;;;5.04;58.26;103381.25;2006649;28;2815338;-77
2023/02/07 01:33:35;;;;;;;;;14.00;13.50;;;;;5.03;58.35;103390.81;2012597;28;2808592;-77
2023/02/07 01:34:46;;;;;;;;;19.67;15.67;;;;;5.03;58.63;103389.94;1993104;28;2840285;-77
2023/02/07 01:35:59;;;;;;;;;26.83;17.67;;;;;5.01;58.60;103376.81;2027198;28;1833635;-77
2023/02/07 01:37:10;;;;;;;;;15.00;15.00;;;;;5.00;58.72;103390.72;1974697;28;2825294;-77
2023/02/07 01:38:21;;;;;;;;;20.50;17.00;;;;;4.98;58.65;103389.78;1993029;28;2819016;-77
2023/02/07 01:39:32;;;;;;;;;16.50;14.00;;;;;5.00;58.69;103402.84;1986027;28;2805468;-77
2023/02/07 01:40:43;;;;;;;;;18.50;14.00;;;;;4.99;58.44;103398.50;2008962;28;2814843;-77
2023/02/07 01:41:54;;;;;;;;;20.50;18.00;;;;;4.98;58.58;103400.22;1994211;28;2829417;-77
2023/02/07 01:43:05;;;;;;;;;18.00;15.00;;;;;4.97;58.76;103392.31;1993874;28;2831504;-77
2023/02/07 01:44:38;;;;;;;;;15.00;13.00;;;;;4.98;58.76;103388.91;1974978;28;2810726;-77
2023/02/07 01:45:52;;;;;;;;;18.50;17.33;;;;;4.95;58.76;103394.88;2001173;28;1838317;-77
2023/02/07 01:47:02;;;;;;;;;17.50;13.50;;;;;4.95;58.72;103393.16;1969319;28;2805862;-77
2023/02/07 01:48:19;;;;;;;;;19.00;15.00;;;;;4.92;58.67;103395.66;1988192;28;2821083;-77
2023/02/07 01:49:34;;;;;;;;;18.50;17.33;;;;;4.90;58.44;103393.84;2035409;28;1841973;-77
2023/02/07 01:50:48;;;;;;;;;18.00;16.00;;;;;4.87;58.94;103394.63;1975768;28;2823172;-77
2023/02/07 01:52:12;;;;;;;;;18.33;16.83;;;;;4.84;58.80;103391.91;2006205;28;1825329;-77
2023/02/07 01:53:24;;;;;;;;;17.00;14.00;;;;;4.82;58.67;103391.84;1977545;28;2831527;-77
2023/02/07 01:54:37;;;;;;;;;19.00;15.50;;;;;4.81;59.19;103392.72;1977536;28;2831564;-77
2023/02/07 01:55:54;;;;;;;;;18.17;15.33;;;;;4.81;58.76;103387.50;2005468;28;1842034;-77
2023/02/07 01:57:12;;;;;;;;;18.83;15.17;;;;;4.82;59.24;103393.56;1998970;28;1837328;-77
2023/02/07 01:58:23;;;;;;;;;18.50;14.00;;;;;4.81;58.71;103390.09;1977498;28;2803392;-77
2023/02/07 01:59:37;;;;;;;;;20.00;15.50;;;;;4.81;59.09;103386.59;1975403;28;2812723;-77
2023/02/07 02:00:49;;;;;;;;;18.00;15.00;;;;;4.82;58.42;103389.25;1976129;28;2803369;-77
2023/02/07 02:02:04;;;;;;;;;20.71;15.57;;;;;4.84;59.33;103389.28;2024173;28;1832573;-77
2023/02/07 02:03:15;;;;;;;;;20.50;16.50;;;;;4.84;59.61;103391.91;1997902;28;2817982;-77
2023/02/07 02:04:27;;;;;;;;;21.80;14.60;;;;;4.84;58.75;103386.69;2002404;28;1837857;-77
2023/02/07 02:05:40;;;;;;;;;21.00;14.00;;;;;4.85;58.68;103391.09;1998765;28;2820475;-77
2023/02/07 02:06:51;;;;;;;;;17.50;14.00;;;;;4.85;59.23;103383.25;1974826;28;2808588;-77
2023/02/07 02:08:04;;;;;;;;;15.50;12.83;;;;;4.87;58.88;103386.81;2010071;28;1836201;-77
2023/02/07 02:09:15;;;;;;;;;17.00;17.00;;;;;4.89;58.83;103386.88;1977506;28;2827859;-77
2023/02/07 02:10:46;;;;;;;;;22.00;14.50;;;;;4.89;58.78;103379.91;1975282;28;2832561;-77
2023/02/07 02:12:29;;;;;;;;;17.00;12.00;;;;;4.90;59.13;103376.50;2007811;28;1835750;-77
2023/02/07 02:13:57;;;;;;;;;17.33;17.00;;;;;4.92;59.10;103367.00;1972035;28;2822187;-77
2023/02/07 02:15:45;;;;;;;;;19.00;16.00;;;;;4.91;58.91;103370.44;2004392;28;2835710;-77
2023/02/07 02:17:20;;;;;;;;;18.33;14.67;;;;;4.90;58.90;103366.06;1971909;28;3543987;-77
2023/02/07 02:19:01;;;;;;;;;17.33;12.67;;;;;4.91;58.98;103369.56;1971560;28;3528406;-77
2023/02/07 02:20:39;;;;;;;;;15.50;14.00;;;;;4.92;58.85;103371.31;1993843;28;2794060;-77
2023/02/07 02:22:09;;;;;;;;;16.25;11.75;;;;;4.90;58.98;103359.97;2014080;28;1842009;-77
2023/02/07 02:23:31;;;;;;;;;16.50;14.50;;;;;4.89;59.00;103360.81;1991483;28;2821104;-77
2023/02/07 02:25:03;;;;;;;;;12.00;10.00;;;;;4.85;58.88;103365.03;1971129;28;2778397;-77
2023/02/07 02:26:41;;;;;;;;;15.00;14.00;;;;;4.83;59.04;103361.47;2013945;28;1843013;-77
2023/02/07 02:28:04;;;;;;;;;21.50;16.00;;;;;4.82;58.99;103364.91;1976048;28;2809642;-77
2023/02/07 02:29:42;;;;;;;;;15.00;15.00;;;;;4.82;59.19;103354.47;1974505;28;2813797;-77
2023/02/07 02:31:27;;;;;;;;;6.83;2.33;;;;;4.80;59.13;103346.63;2010857;28;2754427;-77
2023/02/07 02:32:51;;;;;;;;;18.00;16.00;;;;;4.80;59.24;103343.13;1999641;28;2810680;-77
2023/02/07 02:34:25;;;;;;;;;17.00;13.00;;;;;4.79;59.10;103342.22;2004563;28;2803471;-77
2023/02/07 02:36:14;;;;;;;;;17.50;14.50;;;;;4.79;58.75;103350.06;1995049;28;2823186;-77
2023/02/07 02:37:28;;;;;;;;;14.67;14.33;;;;;4.76;58.95;103349.97;1959840;28;3526279;-77
2023/02/07 02:38:51;;;;;;;;;15.00;13.00;;;;;4.75;59.13;103357.72;1990939;28;2791973;-77
2023/02/07 02:40:10;;;;;;;;;12.00;11.00;;;;;4.71;59.28;103355.03;1993970;28;2787780;-77
2023/02/07 02:41:25;;;;;;;;;19.50;13.00;;;;;4.69;59.32;103354.06;2003783;28;2829445;-77
2023/02/07 02:42:50;;;;;;;;;17.00;13.00;;;;;4.70;59.55;103353.25;1974680;28;2806520;-77
2023/02/07 02:44:23;;;;;;;;;18.00;16.00;;;;;4.69;59.96;103355.81;1977084;28;2815259;-77
2023/02/07 02:45:43;;;;;;;;;18.50;17.00;;;;;4.68;59.31;103354.91;1974741;28;2839980;-77
2023/02/07 02:46:58;;;;;;;;;16.50;13.50;;;;;4.69;59.15;103355.81;1990140;28;1844082;-77
2023/02/07 02:48:10;;;;;;;;;18.00;13.00;;;;;4.68;59.55;103357.53;1998250;28;2819044;-77
2023/02/07 02:49:22;;;;;;;;;12.33;11.33;;;;;4.68;59.19;103356.63;1972940;28;3511729;-77
2023/02/07 02:50:34;;;;;;;;;16.00;11.00;;;;;4.67;59.60;103354.84;1999465;28;2796510;-77
2023/02/07 02:51:49;;;;;;;;;11.50;9.50;;;;;4.66;59.58;103353.97;2004560;28;2778401;-77
2023/02/07 02:53:00;;;;;;;;;15.75;12.25;;;;;4.65;59.33;103357.41;2012965;28;1841969;-77
2023/02/07 02:54:30;;;;;;;;;17.25;10.75;;;;;4.67;59.32;103358.34;2013337;28;1848176;-77
2023/02/07 02:56:04;;;;;;;;;19.00;13.00;;;;;4.62;59.19;103359.91;2001987;28;2817008;-77
2023/02/07 02:57:39;;;;;;;;;16.25;13.50;;;;;4.62;59.41;103367.72;2013096;28;1850274;-77
2023/02/07 02:59:29;;;;;;;;;17.50;15.00;;;;;4.60;59.70;103364.16;1999686;28;2827380;-77
2023/02/07 03:01:05;;;;;;;;;20.00;14.00;;;;;4.57;59.48;103359.75;1976076;28;2813804;-77
2023/02/07 03:02:22;;;;;;;;;17.50;12.50;;;;;4.55;59.77;103347.50;1975284;28;2798220;-77
2023/02/07 03:03:39;;;;;;;;;17.67;16.33;;;;;4.54;59.72;103350.94;1997965;28;2817982;-77
2023/02/07 03:05:00;;;;;;;;;12.67;12.33;;;;;4.53;59.69;103351.78;1998990;28;3513800;-77
2023/02/07 03:06:36;;;;;;;;;11.33;10.00;;;;;4.51;59.37;103346.53;1991611;28;3511682;-77
2023/02/07 03:08:18;;;;;;;;;16.00;10.33;;;;;4.52;59.71;103347.41;2007377;28;1848155;-77
2023/02/07 03:09:53;;;;;;;;;15.67;14.67;;;;;4.49;59.99;103346.44;1975898;28;3543383;-77
2023/02/07 03:11:16;;;;;;;;;9.67;5.33;;;;;4.44;59.71;103340.22;2026990;28;2755502;-77
2023/02/07 03:12:33;;;;;;;;;15.50;15.00;;;;;4.43;59.75;103345.34;1993097;28;2800299;-77
2023/02/07 03:14:13;;;;;;;;;17.00;12.00;;;;;4.42;60.07;103343.59;2014122;28;1842481;-77
2023/02/07 03:15:42;;;;;;;;;13.33;11.00;;;;;4.41;60.06;103342.72;1999707;28;3512165;-78
2023/02/07 03:17:04;;;;;;;;;11.67;11.00;;;;;4.42;59.93;103343.59;2000803;28;3508031;-77
2023/02/07 03:18:28;;;;;;;;;17.00;15.25;;;;;4.42;60.28;103346.19;2018522;28;1848195;-78
2023/02/07 03:19:54;;;;;;;;;15.50;13.75;;;;;4.41;59.92;103342.72;2011894;28;1848269;-77
2023/02/07 03:21:21;;;;;;;;;17.50;15.00;;;;;4.43;59.70;103337.53;1999491;28;2810675;-78
2023/02/07 03:22:33;;;;;;;;;23.50;12.00;;;;;4.43;59.57;103347.94;1999371;28;2825627;-78
2023/02/07 03:23:46;;;;;;;;;15.00;12.00;;;;;4.44;60.03;103337.63;1973855;28;2787768;-78
2023/02/07 03:25:00;;;;;;;;;12.50;12.50;;;;;4.45;60.37;103341.97;1999642;28;2797139;-77
2023/02/07 03:26:11;;;;;;;;;18.50;15.50;;;;;4.46;59.99;103345.47;1998120;28;2831528;-78
2023/02/07 03:27:25;;;;;;;;;12.00;10.00;;;;;4.45;59.49;103343.69;1974722;28;3510281;-77
2023/02/07 03:28:40;;;;;;;;;11.00;10.75;;;;;4.43;60.00;103343.63;2013487;28;1844064;-77
2023/02/07 03:29:56;;;;;;;;;14.50;12.00;;;;;4.42;59.70;103344.47;2012875;28;1850253;-77
2023/02/07 03:31:14;;;;;;;;;11.50;10.67;;;;;4.42;59.73;103348.81;2025684;28;2770068;-78
2023/02/07 03:32:30;;;;;;;;;17.50;13.50;;;;;4.40;60.05;103353.94;1969188;28;2806620;-78
2023/02/07 03:33:42;;;;;;;;;16.33;14.00;;;;;4.32;60.52;103355.41;1998396;28;3528382;-77
2023/02/07 03:35:00;;;;;;;;;14.33;12.00;;;;;4.35;60.03;103348.56;1995543;28;3518969;-77
2023/02/07 03:36:29;;;;;;;;;12.50;11.00;;;;;4.35;60.04;103345.06;2013708;28;1841929;-77
2023/02/07 03:37:45;;;;;;;;;18.75;11.75;;;;;4.35;59.93;103356.38;2012611;28;1852415;-78
2023/02/07 03:38:56;;;;;;;;;12.50;11.50;;;;;4.36;59.92;103357.28;1999069;28;2789847;-78
2023/02/07 03:40:10;;;;;;;;;17.17;13.33;;;;;4.36;60.08;103354.69;2020631;28;1829541;-77
2023/02/07 03:41:29;;;;;;;;;16.00;13.00;;;;;4.34;59.71;103354.63;1999101;28;3529873;-77
2023/02/07 03:42:50;;;;;;;;;17.00;13.67;;;;;4.34;60.45;103358.94;1998178;28;3546158;-78
2023/02/07 03:44:05;;;;;;;;;14.00;11.00;;;;;4.34;60.23;103362.44;1985277;28;3508949;-77
2023/02/07 03:45:19;;;;;;;;;18.00;12.33;;;;;4.35;60.15;103365.91;1991869;28;3518989;-77
2023/02/07 03:46:33;;;;;;;;;18.50;14.00;;;;;4.38;60.21;103366.03;1999157;28;2819021;-77
2023/02/07 03:47:45;;;;;;;;;12.50;12.00;;;;;4.38;59.95;103360.81;1996131;28;1842994;-77
2023/02/07 03:48:56;;;;;;;;;17.00;11.00;;;;;4.38;60.19;103360.81;1999508;28;3524185;-77
2023/02/07 03:50:07;;;;;;;;;18.00;15.00;;;;;4.38;60.08;103361.72;2014947;28;2821168;-77
2023/02/07 03:51:18;;;;;;;;;13.67;11.33;;;;;4.42;59.92;103359.22;1982747;28;3509019;-77
2023/02/07 03:52:29;;;;;;;;;18.00;16.00;;;;;4.41;59.61;103353.13;2016629;28;2837773;-77
2023/02/07 03:53:40;;;;;;;;;17.00;12.50;;;;;4.42;59.95;103360.09;1993091;28;2801278;-77
2023/02/07 03:54:51;;;;;;;;;19.00;14.67;;;;;4.43;60.10;103356.66;2005685;28;1843200;-77
2023/02/07 03:56:01;;;;;;;;;16.50;15.00;;;;;4.42;60.41;103360.09;1975941;28;2826326;-77
2023/02/07 03:57:12;;;;;;;;;16.50;15.00;;;;;4.42;59.80;103367.91;1993559;28;2813772;-77
2023/02/07 03:58:23;;;;;;;;;17.50;13.00;;;;;4.42;60.37;103367.91;2010294;28;2810667;-77
2023/02/07 03:59:35;;;;;;;;;21.00;17.00;;;;;4.37;60.41;103375.56;2001268;28;1844106;-77
2023/02/07 04:00:46;;;;;;;;;18.00;14.00;;;;;4.35;59.81;103360.69;1991907;28;2812746;-77
2023/02/07 04:01:57;;;;;;;;;12.00;12.00;;;;;4.35;59.96;103371.13;1993717;28;3515867;-77
2023/02/07 04:03:08;;;;;;;;;15.00;10.50;;;;;4.34;59.89;103362.44;2016541;28;2797165;-77
2023/02/07 04:04:19;;;;;;;;;17.00;12.00;;;;;4.34;60.31;103365.03;2018600;28;2804454;-77
2023/02/07 04:05:30;;;;;;;;;21.00;16.00;;;;;4.34;60.21;103371.97;2013843;28;2818530;-77
2023/02/07 04:06:41;;;;;;;;;16.00;13.50;;;;;4.35;60.02;103371.13;1984803;28;2800315;-77
2023/02/07 04:07:52;;;;;;;;;15.50;14.50;;;;;4.36;60.09;103372.91;1992574;28;2798227;-77
2023/02/07 04:09:04;;;;;;;;;18.60;12.00;;;;;4.34;59.88;103370.25;2030455;28;1825315;-77
2023/02/07 04:10:14;;;;;;;;;15.67;11.00;;;;;4.34;60.39;103371.97;2000323;28;3518989;-77
2023/02/07 04:11:25;;;;;;;;;17.00;13.00;;;;;4.34;59.99;103369.38;2012048;28;2802342;-77
2023/02/07 04:12:37;;;;;;;;;13.00;11.25;;;;;4.34;60.74;103365.03;2005252;28;1847236;-77
2023/02/07 04:13:47;;;;;;;;;16.50;11.50;;;;;4.34;60.25;103374.56;1999506;28;2796080;-77
2023/02/07 04:14:59;;;;;;;;;11.67;10.00;;;;;4.34;60.10;103364.16;1993670;28;3506589;-77
2023/02/07 04:16:12;;;;;;;;;5.33;5.00;;;;;4.32;60.15;103360.63;2027092;28;2740451;-77
2023/02/07 04:17:23;;;;;;;;;19.50;16.50;;;;;4.30;60.02;103365.75;1995951;28;2827357;-77
2023/02/07 04:18:34;;;;;;;;;14.00;12.00;;;;;4.28;60.41;103365.69;1989735;28;2804390;-77
2023/02/07 04:19:45;;;;;;;;;24.00;15.00;;;;;4.28;60.36;103362.22;2014252;28;3577414;-77
2023/02/07 04:21:01;;;;;;;;;10.50;10.00;;;;;4.26;60.02;103356.06;1993848;28;2778425;-77
2023/02/07 04:22:12;;;;;;;;;13.00;11.50;;;;;4.25;59.78;103370.78;1995742;28;2795082;-77
2023/02/07 04:23:22;;;;;;;;;11.33;9.67;;;;;4.23;60.11;103362.03;2010572;28;3495058;-78
2023/02/07 04:24:34;;;;;;;;;16.00;14.00;;;;;4.22;60.67;103368.06;2017661;28;2824224;-77
2023/02/07 04:25:46;;;;;;;;;15.25;12.75;;;;;4.21;60.20;103368.91;1984198;28;1843068;-77
2023/02/07 04:26:57;;;;;;;;;22.00;13.50;;;;;4.21;60.48;103376.72;1993245;28;2821115;-77
2023/02/07 04:28:09;;;;;;;;;25.00;14.67;;;;;4.20;60.04;103374.94;1976941;28;2846106;-77
2023/02/07 04:29:20;;;;;;;;;15.50;13.25;;;;;4.19;60.29;103382.72;2014286;28;1846127;-77
2023/02/07 04:30:32;;;;;;;;;13.25;11.00;;;;;4.19;60.89;103381.00;2011805;28;1816954;-77
2023/02/07 04:31:42;;;;;;;;;16.50;11.50;;;;;4.20;60.43;103376.69;1999800;28;2795453;-77
2023/02/07 04:32:53;;;;;;;;;19.00;13.50;;;;;4.20;60.69;103377.53;2017123;28;2827353;-77
2023/02/07 04:34:04;;;;;;;;;13.00;12.50;;;;;4.20;60.51;103380.16;1999096;28;2789823;-77
2023/02/07 04:35:15;;;;;;;;;12.50;11.50;;;;;4.21;60.31;103384.53;2006264;28;2786729;-77
2023/02/07 04:36:28;;;;;;;;;17.00;13.00;;;;;4.20;60.59;103376.69;2018115;28;2810672;-77
2023/02/07 04:37:39;;;;;;;;;11.50;11.50;;;;;4.20;60.37;103376.69;1992630;28;1841011;-77
2023/02/07 04:38:50;;;;;;;;;16.00;11.00;;;;;4.22;60.66;103373.28;1999641;28;2785708;-78
2023/02/07 04:40:01;;;;;;;;;16.00;12.50;;;;;4.22;60.48;103375.88;2013022;28;2801317;-77
2023/02/07 04:41:12;;;;;;;;;14.00;12.00;;;;;4.22;60.22;103370.66;2019182;28;2796116;-77
2023/02/07 04:42:23;;;;;;;;;11.00;10.00;;;;;4.22;59.99;103377.63;2012192;28;2780956;-77
2023/02/07 04:43:35;;;;;;;;;12.00;10.00;;;;;4.20;60.51;103367.13;2017913;28;2777359;-77
2023/02/07 04:44:46;;;;;;;;;21.67;14.67;;;;;4.21;60.18;103376.72;1976220;28;3563766;-77
2023/02/07 04:45:57;;;;;;;;;15.50;12.00;;;;;4.21;60.12;103374.13;1991233;28;2790913;-77
2023/02/07 04:47:09;;;;;;;;;19.00;11.00;;;;;4.21;60.56;103374.13;2028260;28;1829559;-77
2023/02/07 04:48:19;;;;;;;;;10.50;9.50;;;;;4.20;60.67;103385.34;1975158;28;2769029;-77
2023/02/07 04:49:30;;;;;;;;;17.00;12.75;;;;;4.20;60.19;103384.50;2028805;28;1831605;-77
2023/02/07 04:50:41;;;;;;;;;13.00;11.33;;;;;4.20;60.25;103392.31;1983651;28;2778498;-78
2023/02/07 04:51:52;;;;;;;;;14.00;13.00;;;;;4.18;60.47;103388.72;2034111;28;1839889;-77
2023/02/07 04:53:02;;;;;;;;;10.67;10.67;;;;;4.17;60.22;103390.47;1975963;28;3519016;-77
2023/02/07 04:54:13;;;;;;;;;12.67;12.00;;;;;4.15;60.22;103389.50;2015733;28;3500688;-77
2023/02/07 04:55:24;;;;;;;;;19.00;17.00;;;;;4.12;60.05;103386.81;2004790;28;2829420;-77
2023/02/07 04:56:35;;;;;;;;;18.00;12.00;;;;;4.10;60.62;103391.06;1994348;28;2799560;-77
2023/02/07 04:57:47;;;;;;;;;18.50;15.50;;;;;4.07;60.62;103391.84;2016747;28;2835706;-77
2023/02/07 04:58:58;;;;;;;;;18.25;13.25;;;;;4.06;60.78;103382.25;1990026;28;1847194;-77
2023/02/07 05:00:10;;;;;;;;;16.00;14.50;;;;;4.05;60.50;103388.28;1999346;28;2828459;-77
2023/02/07 05:01:21;;;;;;;;;15.25;14.75;;;;;4.01;60.56;103374.28;1989615;28;1841909;-77
2023/02/07 05:02:31;;;;;;;;;15.00;15.00;;;;;4.00;60.71;103382.91;2000319;28;2812766;-77
2023/02/07 05:03:43;;;;;;;;;17.00;14.50;;;;;4.00;60.52;103382.03;2014900;28;2804460;-77
2023/02/07 05:04:55;;;;;;;;;15.80;14.20;;;;;4.01;60.86;103376.88;2003551;28;1835699;-77
2023/02/07 05:06:06;;;;;;;;;13.67;9.67;;;;;4.02;61.19;103385.56;1974643;28;3501277;-78
2023/02/07 05:07:17;;;;;;;;;18.50;15.00;;;;;3.99;60.51;103386.34;2010598;28;2823175;-77
2023/02/07 05:08:28;;;;;;;;;18.00;14.50;;;;;3.96;61.06;103388.81;1977194;28;2813778;-77
2023/02/07 05:09:39;;;;;;;;;17.50;15.00;;;;;3.94;60.81;103386.19;1991414;28;2821162;-78
2023/02/07 05:10:52;;;;;;;;;17.50;14.00;;;;;3.94;60.60;103393.97;1991904;28;2818988;-78
2023/02/07 05:12:04;;;;;;;;;12.25;10.75;;;;;3.93;61.08;103393.91;1994183;28;1842044;-77
2023/02/07 05:13:14;;;;;;;;;16.00;14.00;;;;;3.91;60.72;103400.78;1997593;28;2801262;-77
2023/02/07 05:14:25;;;;;;;;;15.50;12.00;;;;;3.92;60.81;103402.56;1992259;28;2801320;-77
2023/02/07 05:15:36;;;;;;;;;12.33;9.00;;;;;3.93;60.70;103399.09;1993299;28;3489819;-77
2023/02/07 05:16:48;;;;;;;;;20.00;14.80;;;;;3.92;61.03;103402.56;2026809;28;1833661;-77
2023/02/07 05:18:02;;;;;;;;;17.50;13.33;;;;;3.91;61.19;103404.28;2027807;28;1835747;-78
2023/02/07 05:19:12;;;;;;;;;15.50;12.50;;;;;3.91;61.06;103400.78;1977592;28;2816960;-77
2023/02/07 05:20:24;;;;;;;;;17.75;15.75;;;;;3.91;60.81;103405.97;2000600;28;1835666;-78
2023/02/07 05:21:35;;;;;;;;;11.50;11.50;;;;;3.91;60.71;103405.97;1977043;28;2791898;-78
2023/02/07 05:22:46;;;;;;;;;19.00;16.50;;;;;3.91;60.62;103404.28;1987351;28;2836156;-77
2023/02/07 05:23:57;;;;;;;;;23.00;17.00;;;;;3.91;60.84;103403.38;1987072;28;2837762;-77
2023/02/07 05:25:08;;;;;;;;;20.00;15.00;;;;;3.89;61.15;103402.44;1988395;28;2824233;-77
2023/02/07 05:26:19;;;;;;;;;16.00;14.00;;;;;3.87;60.90;103399.78;1993888;28;2800228;-77
2023/02/07 05:27:30;;;;;;;;;17.00;11.50;;;;;3.85;60.81;103396.25;2011699;28;2801317;-78
2023/02/07 05:28:41;;;;;;;;;14.00;12.00;;;;;3.83;60.94;103405.69;2014848;28;2787796;-77
2023/02/07 05:29:53;;;;;;;;;20.60;16.40;;;;;3.82;61.22;103406.53;2026425;28;1822242;-78
2023/02/07 05:31:04;;;;;;;;;16.25;13.50;;;;;3.83;60.65;103401.38;2009650;28;1848326;-77
2023/02/07 05:33:44;;;;;;;;;19.50;16.50;;;;;3.85;60.93;103405.75;1992389;28;2827369;-78
2023/02/07 05:34:55;;;;;;;;;18.00;15.00;;;;;3.85;61.27;103410.97;1990535;28;2828339;-78
2023/02/07 05:36:07;;;;;;;;;22.00;16.00;;;;;3.83;61.38;103409.16;1991215;28;2816276;-78
2023/02/07 05:37:20;;;;;;;;;16.17;15.17;;;;;3.86;60.74;103405.81;2010363;28;1829465;-78
2023/02/07 05:38:31;;;;;;;;;19.00;14.00;;;;;3.88;61.46;103398.94;1967785;28;2812250;-77
2023/02/07 05:39:42;;;;;;;;;17.50;15.00;;;;;3.89;60.84;103389.41;1979587;28;2808573;-77